10:06
Airports
Links
Donate
Help keep this website running!
PayPal
Bitcoin
METAR
KBOS 240954Z 24013KT 10SM CLR 06/04 A3003 RMK AO2 SLP168 T00610044
Current Weather Conditions at KBOS
VFR 09:54:00 24-02-18
Automated station
Altimeter:30.03 hg
Temp:6.1°c 43°f
Dew point:4.4°c 39°f
Wind:13 knots, 15 mph, 7 m/s, from 240°
Visibility:10.0 statute miles
(CLR) Clear
Past METAR reports
VFR 08:54:00 24-02-18
Automated station
Altimeter:30.02 hg
Temp:5.6°c 41°f
Dew point:3.9°c 37°f
Wind:11 knots, 12.7 mph, 6 m/s, from 240°
Visibility:10.0 statute miles
(CLR) Clear
KBOS 240854Z 24011KT 10SM CLR 06/04 A3002 RMK AO2 SLP164 T00560039 55011
VFR 07:54:00 24-02-18
Automated station
Altimeter:30.02 hg
Temp:5.0°c 41°f
Dew point:3.3°c 37°f
Wind:12 knots, 13.8 mph, 6 m/s, from 250°
Visibility:10.0 statute miles
(CLR) Clear
KBOS 240754Z 25012KT 10SM CLR 05/03 A3002 RMK AO2 SLP163 T00500033
VFR 06:54:00 24-02-18
Automated station
Altimeter:30.03 hg
Temp:4.4°c 39°f
Dew point:3.3°c 37°f
Wind:13 knots, 15 mph, 7 m/s, from 250°
Visibility:10.0 statute miles
(CLR) Clear
KBOS 240654Z 25013KT 10SM CLR 04/03 A3003 RMK AO2 SLP168 T00440033
VFR 06:40:00 24-02-18
Automated station
Altimeter:30.03 hg
Temp:4.4°c 39°f
Dew point:2.8°c 36°f
Wind:15 knots, 17.3 mph, 8 m/s, from 240°
Visibility:10.0 statute miles
2400(SCT) Scattered
KBOS 240640Z 24015G21KT 10SM SCT024 04/03 A3003 RMK AO2 T00440028
MVFR 06:13:00 24-02-18
Automated station
Altimeter:30.05 hg
Temp:3.9°c 37°f
Dew point:2.8°c 36°f
Wind:11 knots, 12.7 mph, 6 m/s, from 250°
Visibility:10.0 statute miles
2700(OVC) Overcast
1000(SCT) Scattered
KBOS 240613Z 25011KT 10SM SCT010 OVC027 04/03 A3005 RMK AO2 CIG 010 E T00390028
MVFR 06:05:00 24-02-18
Automated station
Altimeter:30.05 hg
Temp:3.9°c 37°f
Dew point:2.8°c 36°f
Wind:9 knots, 10.4 mph, 5 m/s, from 240°
Visibility:10.0 statute miles
2900(OVC) Overcast
1000(BKN) Broken
KBOS 240605Z 24009G17KT 10SM BKN010 OVC029 04/03 A3005 RMK AO2 T00390028
TAF
KBOS 240902Z 2409/2512 25009KT P6SM BKN200 FM241500 29010KT P6SM BKN250 FM242200 34006KT P6SM BKN150 FM250400 03006KT P6SM BKN200 FM250900 07012G20KT P6SM VCSH OVC080
Forecast at KBOS
09:00 24-02-18 to 15:00 24-02-18
Wind:9 Knots from 250°
Visibility:6.21 statute miles
20000BKN Broken
FM 15:00 24-02-18 to 22:00 24-02-18
Wind:10 Knots from 290°
Visibility:6.21 statute miles
25000BKN Broken
FM 22:00 24-02-18 to 04:00 25-02-18
Wind:6 Knots from 340°
Visibility:6.21 statute miles
15000BKN Broken
FM 04:00 25-02-18 to 09:00 25-02-18
Wind:6 Knots from 30°
Visibility:6.21 statute miles
20000BKN Broken
FM 09:00 25-02-18 to 12:00 25-02-18
VCSH
Wind:12 Knots from 70°
Visibility:6.21 statute miles
8000OVC Overcast